Time;durP1;ratioP1;P1;durP2;ratioP2;P2;SDS_P1;SDS_P2;PMS_P1;PMS_P2;Temp;Humidity;BMP_temperature;BMP_pressure;BME280_temperature;BME280_humidity;BME280_pressure;Samples;Min_cycle;Max_cycle;Signal;HPM_P1;HPM_P2
2023/07/17 00:01:39;;;;;;;;;;;;;;;16.82;77.26;101343.56;4959721;28;20046;-78
2023/07/17 00:04:05;;;;;;;4.97;3.33;;;;;;;16.79;76.44;101343.34;4972179;28;19918;-76
2023/07/17 00:06:31;;;;;;;;;;;;;;;16.77;77.29;101337.44;4976144;28;20045;-76
2023/07/17 00:08:58;;;;;;;5.38;2.78;;;;;;;16.73;76.33;101333.72;4954352;28;19969;-75
2023/07/17 00:11:24;;;;;;;5.90;3.42;;;;;;;16.71;76.95;101335.91;4922538;28;20031;-75
2023/07/17 00:13:49;;;;;;;;;;;;;;;16.69;78.07;101338.09;4952866;28;20110;-76
2023/07/17 00:16:15;;;;;;;4.82;3.22;;;;;;;16.65;77.16;101333.25;4950738;28;19926;-75
2023/07/17 00:18:40;;;;;;;;;;;;;;;16.63;78.00;101329.25;4941741;28;20046;-77
2023/07/17 00:21:06;;;;;;;7.13;3.60;;;;;;;16.57;77.35;101325.81;4952337;28;19932;-75
2023/07/17 00:23:32;;;;;;;5.20;3.22;;;;;;;16.55;77.91;101333.44;4941094;28;20045;-77
2023/07/17 00:25:58;;;;;;;9.45;3.38;;;;;;;16.51;78.24;101320.78;4940634;28;20056;-75
2023/07/17 00:28:24;;;;;;;;;;;;;;;16.49;78.69;101320.28;4953382;28;20031;-79
2023/07/17 00:30:50;;;;;;;5.30;2.90;;;;;;;16.46;77.57;101329.81;4955688;28;19918;-74
2023/07/17 00:33:15;;;;;;;;;;;;;;;16.44;78.39;101331.19;4939986;28;20046;-77
2023/07/17 00:35:41;;;;;;;4.60;3.20;;;;;;;16.37;78.32;101326.94;4942299;28;20447;-78
2023/07/17 00:38:07;;;;;;;5.40;3.47;;;;;;;16.34;77.86;101334.84;4936195;28;20046;-79
2023/07/17 00:40:34;;;;;;;;;;;;;;;16.35;78.67;101337.25;4941530;28;20034;-78
2023/07/17 00:43:01;;;;;;;7.15;3.72;;;;;;;16.32;78.30;101339.72;4948907;28;19960;-79
2023/07/17 00:45:31;;;;;;;6.32;2.63;;;;;;;16.24;77.53;101332.28;4920023;28;20054;-78
2023/07/17 00:47:58;;;;;;;5.57;2.90;;;;;;;16.22;77.92;101346.09;4954452;28;20035;-76
2023/07/17 00:50:24;;;;;;;6.07;3.45;;;;;;;16.19;78.00;101348.56;4937900;28;20367;-78
2023/07/17 00:52:54;;;;;;;4.05;2.80;;;;;;;16.15;78.22;101339.47;4941987;28;20043;-78
2023/07/17 00:55:20;;;;;;;5.35;2.95;;;;;;;16.09;78.50;101342.22;4919373;28;20492;-79
2023/07/17 00:57:51;;;;;;;5.28;2.67;;;;;;;16.08;78.39;101339.81;4951547;28;20050;-77
2023/07/17 01:00:18;;;;;;;5.03;3.60;;;;;;;16.05;78.89;101345.78;4953780;28;20478;-76
2023/07/17 01:02:44;;;;;;;5.45;3.35;;;;;;;16.05;78.77;101335.00;4936460;28;20051;-77
2023/07/17 01:05:10;;;;;;;6.05;3.53;;;;;;;16.03;79.16;101339.88;4945147;28;20050;-75
2023/07/17 01:07:39;;;;;;;4.25;3.17;;;;;;;16.02;78.94;101336.38;4937569;28;20518;-76
2023/07/17 01:10:06;;;;;;;5.15;3.20;;;;;;;16.01;79.29;101336.69;4955590;28;20040;-74
2023/07/17 01:12:35;;;;;;;5.25;3.42;;;;;;;16.01;79.37;101340.19;4954308;28;20495;-77
2023/07/17 01:15:02;;;;;;;5.47;3.40;;;;;;;15.99;79.48;101331.59;4952409;28;20037;-76
2023/07/17 01:17:30;;;;;;;8.02;3.95;;;;;;;16.00;78.82;101335.09;4925720;28;20105;-76
2023/07/17 01:19:56;;;;;;;5.32;3.50;;;;;;;16.00;79.33;101337.78;4953111;28;20034;-76
2023/07/17 01:22:25;;;;;;;;;;;;;;;16.01;80.07;101333.97;4939019;28;20799;-80
2023/07/17 01:24:50;;;;;;;4.00;2.92;;;;;;;15.98;79.69;101324.53;4954473;28;20399;-75
2023/07/17 01:27:17;;;;;;;7.22;3.70;;;;;;;15.99;80.19;101326.19;4939793;28;20582;-73
2023/07/17 01:29:43;;;;;;;6.30;3.20;;;;;;;16.01;79.54;101329.38;4960200;28;20026;-74
2023/07/17 01:32:09;;;;;;;;;;;;;;;16.06;80.60;101320.41;4937637;28;20427;-75
2023/07/17 01:34:35;;;;;;;5.25;3.40;;;;;;;16.10;79.69;101327.63;4952533;28;20145;-77
2023/07/17 01:37:02;;;;;;;5.22;3.25;;;;;;;16.15;79.76;101323.25;4919393;28;20046;-78
2023/07/17 01:39:30;;;;;;;5.90;3.17;;;;;;;16.17;79.03;101321.06;4933460;29;20141;-79
2023/07/17 01:41:56;;;;;;;6.78;3.70;;;;;;;16.20;78.93;101320.47;4938861;28;20049;-77
2023/07/17 01:44:28;;;;;;;7.63;3.50;;;;;;;16.22;78.90;101318.28;4933162;28;20046;-77
2023/07/17 01:46:56;;;;;;;6.25;3.85;;;;;;;16.24;78.82;101330.41;4938781;28;20057;-75
2023/07/17 01:49:22;;;;;;;6.75;3.53;;;;;;;16.29;78.25;101334.94;4933074;28;20481;-77
2023/07/17 01:51:49;;;;;;;5.85;3.38;;;;;;;16.29;79.45;101319.50;4945830;28;20058;-75
2023/07/17 01:54:15;;;;;;;;;;;;;;;16.30;79.35;101331.94;4932927;28;20605;-77
2023/07/17 01:56:42;;;;;;;7.00;3.17;;;;;;;16.27;78.57;101327.13;4957270;28;19925;-79
2023/07/17 01:59:08;;;;;;;;;;;;;;;16.29;79.14;101332.22;4942547;28;20034;-79
2023/07/17 02:01:33;;;;;;;5.47;3.00;;;;;;;16.24;77.93;101329.59;4949199;28;19924;-77
2023/07/17 02:03:59;;;;;;;;;;;;;;;16.24;78.97;101326.88;4955758;28;20122;-79
2023/07/17 02:06:26;;;;;;;4.82;3.03;;;;;;;16.17;78.66;101329.16;4952922;28;19922;-77
2023/07/17 02:08:52;;;;;;;4.50;2.92;;;;;;;16.17;78.72;101318.34;4950596;28;20054;-78
2023/07/17 02:11:22;;;;;;;6.20;3.75;;;;;;;16.15;79.02;101323.25;4972080;28;20039;-79
2023/07/17 02:13:51;;;;;;;4.93;3.25;;;;;;;16.09;78.95;101336.03;4945674;28;20035;-79
2023/07/17 02:16:17;;;;;;;5.10;3.28;;;;;;;16.10;78.80;101343.84;4925916;28;20038;-78
2023/07/17 02:18:43;;;;;;;;;;;;;;;16.09;80.01;101341.44;4955192;28;20049;-77
2023/07/17 02:21:10;;;;;;;10.20;3.90;;;;;;;16.05;79.83;101335.00;4955843;28;20752;-76
2023/07/17 02:23:36;;;;;;;;;;;;;;;16.05;79.64;101341.22;4921022;28;20035;-73
2023/07/17 02:26:03;;;;;;;4.72;2.50;;;;;;;16.02;79.37;101347.19;4951819;28;19917;-78
2023/07/17 02:28:29;;;;;;;4.63;3.00;;;;;;;16.01;79.37;101348.28;4923672;28;20105;-74
2023/07/17 02:30:54;;;;;;;;;;;;;;;16.00;80.62;101344.00;4951758;28;20039;-79
2023/07/17 02:33:20;;;;;;;6.53;3.83;;;;;;;15.98;79.85;101350.75;4939747;28;19921;-75
2023/07/17 02:35:47;;;;;;;6.78;3.15;;;;;;;15.98;79.92;101359.66;4922193;28;20049;-76
2023/07/17 02:38:12;;;;;;;;;;;;;;;15.98;80.20;101367.78;4937596;28;20027;-76
2023/07/17 02:40:38;;;;;;;7.90;3.50;;;;;;;15.91;80.21;101372.72;4934396;28;19969;-75
2023/07/17 02:43:07;;;;;;;;;;;;;;;15.89;80.34;101368.72;4939816;28;20093;-75
2023/07/17 02:45:33;;;;;;;5.22;3.08;;;;;;;15.78;80.30;101368.03;4932085;28;20391;-78
2023/07/17 02:47:59;;;;;;;;;;;;;;;15.77;80.83;101374.53;4924106;28;20035;-77
2023/07/17 02:50:25;;;;;;;6.05;3.28;;;;;;;15.72;79.99;101369.22;4939184;28;19936;-77
2023/07/17 02:52:50;;;;;;;;;;;;;;;15.73;79.39;101382.41;4956624;28;20055;-76
2023/07/17 02:55:16;;;;;;;5.32;3.42;;;;;;;15.77;79.14;101379.94;4934107;28;19925;-79
2023/07/17 02:57:42;;;;;;;;;;;;;;;15.80;79.30;101373.97;4955005;28;20042;-77
2023/07/17 03:00:08;;;;;;;7.03;2.95;;;;;;;15.79;78.65;101375.06;4949657;28;20299;-78
2023/07/17 03:02:35;;;;;;;5.25;3.03;;;;;;;15.83;78.58;101376.06;4953860;28;20114;-75
2023/07/17 03:05:05;;;;;;;5.00;3.38;;;;;;;15.84;78.40;101373.06;4937919;28;20096;-75
2023/07/17 03:07:35;;;;;;;6.57;3.28;;;;;;;15.83;78.46;101371.47;4947629;28;20060;-77
2023/07/17 03:10:03;;;;;;;5.82;3.25;;;;;;;15.89;78.51;101384.91;4941238;28;20049;-75
2023/07/17 03:12:28;;;;;;;;;;;;;;;15.92;77.79;101373.53;4970022;28;20039;-79
2023/07/17 03:14:58;;;;;;;7.10;3.15;;;;;;;15.93;77.21;101375.16;4938786;28;19923;-78
2023/07/17 03:17:23;;;;;;;5.07;3.25;;;;;;;15.96;77.16;101383.47;4939752;28;20041;-72
2023/07/17 03:19:51;;;;;;;;;;;;;;;15.99;76.26;101379.41;4937002;28;20042;-74
2023/07/17 03:22:18;;;;;;;5.93;3.42;;;;;;;16.02;76.00;101382.31;4948136;28;19972;-77
2023/07/17 03:24:43;;;;;;;;;;;;;;;16.05;75.89;101379.06;4944844;28;20042;-78
2023/07/17 03:27:09;;;;;;;5.85;3.78;;;;;;;16.08;75.79;101362.25;4958430;28;20008;-77
2023/07/17 03:29:37;;;;;;;7.18;2.95;;;;;;;16.09;75.95;101363.84;4940806;28;20663;-79
2023/07/17 03:32:04;;;;;;;5.93;3.17;;;;;;;16.10;75.79;101356.53;4942941;28;20511;-78
2023/07/17 03:34:30;;;;;;;5.10;2.95;;;;;;;16.11;75.73;101340.03;4954986;28;20524;-76
2023/07/17 03:36:56;;;;;;;;;;;;;;;16.15;76.33;101348.38;4942512;28;20046;-78
2023/07/17 03:39:22;;;;;;;6.68;3.15;;;;;;;16.16;76.18;101357.28;4943516;28;19922;-78
2023/07/17 03:41:47;;;;;;;;;;;;;;;16.15;78.33;101347.56;4929518;28;20408;-78
2023/07/17 03:44:13;;;;;;;8.50;3.08;;;;;;;16.06;77.95;101337.44;4957110;28;19925;-76
2023/07/17 03:46:40;;;;;;;4.15;2.60;;;;;;;16.05;78.40;101352.03;4943837;28;20044;-79
2023/07/17 03:49:06;;;;;;;5.68;2.80;;;;;;;15.99;78.63;101352.41;4927191;28;20046;-77
2023/07/17 03:51:32;;;;;;;;;;;;;;;15.98;78.77;101365.06;4941203;28;20496;-78
2023/07/17 03:53:59;;;;;;;8.35;3.30;;;;;;;16.02;77.28;101355.31;4926903;28;19924;-78
2023/07/17 03:56:25;;;;;;;5.90;3.33;;;;;;;16.10;76.52;101368.16;4925910;28;20035;-75
2023/07/17 03:58:50;;;;;;;;;;;;;;;16.18;75.79;101365.88;4927662;28;20034;-77
2023/07/17 04:01:16;;;;;;;6.00;3.25;;;;;;;16.19;75.55;101364.78;4925729;28;20586;-78
2023/07/17 04:03:45;;;;;;;4.43;2.97;;;;;;;16.21;75.51;101368.03;4944564;28;20038;-77
2023/07/17 04:06:11;;;;;;;6.07;3.35;;;;;;;16.22;75.23;101367.72;4941360;28;20030;-78
2023/07/17 04:08:38;;;;;;;5.35;3.20;;;;;;;16.25;75.07;101374.44;4954031;28;20035;-75
2023/07/17 04:11:04;;;;;;;;;;;;;;;16.29;74.93;101378.16;4945940;28;20535;-76
2023/07/17 04:13:29;;;;;;;6.32;3.38;;;;;;;16.33;75.34;101381.91;4956871;28;19918;-76
2023/07/17 04:15:59;;;;;;;6.07;3.00;;;;;;;16.33;75.09;101373.81;4938916;28;20125;-75
2023/07/17 04:18:25;;;;;;;5.50;3.22;;;;;;;16.35;74.66;101372.41;4945373;28;20023;-74
2023/07/17 04:20:50;;;;;;;;;;;;;;;16.41;74.57;101369.63;4943340;28;20034;-74
2023/07/17 04:23:16;;;;;;;4.90;2.97;;;;;;;16.39;74.55;101367.19;4962652;28;19921;-79
2023/07/17 04:25:47;;;;;;;5.07;2.90;;;;;;;16.41;74.97;101381.25;4941287;28;20125;-77
2023/07/17 04:28:13;;;;;;;;;;;;;;;16.43;74.77;101381.75;4927128;28;20508;-75
2023/07/17 04:30:40;;;;;;;7.47;3.17;;;;;;;16.42;75.02;101382.84;4930501;28;19921;-77
2023/07/17 04:33:09;;;;;;;6.50;3.03;;;;;;;16.41;74.92;101402.88;4956816;28;20039;-72
2023/07/17 04:35:39;;;;;;;;;;;;;;;16.42;74.88;101399.06;4936731;28;20054;-76
2023/07/17 04:38:05;;;;;;;6.60;2.67;;;;;;;16.42;74.60;101399.06;4954134;28;19918;-77
2023/07/17 04:40:31;;;;;;;6.03;3.17;;;;;;;16.45;75.36;101401.16;4942152;28;20045;-76
2023/07/17 04:43:00;;;;;;;5.88;3.20;;;;;;;16.48;74.69;101416.03;4959078;28;20042;-77
2023/07/17 04:45:26;;;;;;;7.00;3.30;;;;;;;16.48;74.86;101422.22;4921021;28;20039;-79
2023/07/17 04:47:53;;;;;;;4.38;3.00;;;;;;;16.51;74.99;101418.94;4937813;28;20031;-78
2023/07/17 04:50:22;;;;;;;6.70;2.90;;;;;;;16.53;74.69;101414.06;4970826;28;20480;-79
2023/07/17 04:52:49;;;;;;;6.22;2.67;;;;;;;16.55;74.46;101409.16;4940731;28;20045;-77
2023/07/17 04:55:14;;;;;;;;;;;;;;;16.58;75.39;101416.66;4940591;28;20411;-77
2023/07/17 04:57:42;;;;;;;6.70;3.20;;;;;;;16.58;74.78;101418.56;4942651;28;20291;-77
2023/07/17 05:00:09;;;;;;;5.30;3.00;;;;;;;16.57;76.11;101412.34;4937378;28;20050;-74
2023/07/17 05:02:35;;;;;;;6.65;3.05;;;;;;;16.59;75.09;101415.56;4939837;28;20160;-75
2023/07/17 05:05:01;;;;;;;;;;;;;;;16.59;74.61;101417.47;4939902;28;20747;-80
2023/07/17 05:07:29;;;;;;;7.55;2.97;;;;;;;16.63;74.33;101415.78;4939461;28;19921;-79
2023/07/17 05:09:55;;;;;;;5.97;3.13;;;;;;;16.67;74.39;101416.03;4946566;28;20050;-74
2023/07/17 05:12:21;;;;;;;;;;;;;;;16.70;73.96;101423.56;4960742;28;20035;-77
2023/07/17 05:14:50;;;;;;;7.88;3.38;;;;;;;16.72;74.39;101411.34;4943932;28;19922;-80
2023/07/17 05:17:18;;;;;;;7.93;3.75;;;;;;;16.74;73.35;101411.06;4936610;28;20035;-76
2023/07/17 05:19:44;;;;;;;7.72;3.22;;;;;;;16.78;73.25;101409.38;4956760;28;20055;-78
2023/07/17 05:22:11;;;;;;;6.63;3.17;;;;;;;16.81;73.89;101411.50;4942068;28;20124;-75
2023/07/17 05:24:38;;;;;;;5.25;3.05;;;;;;;16.82;73.86;101407.69;4925767;28;20189;-77
2023/07/17 05:27:05;;;;;;;7.15;3.28;;;;;;;16.89;73.75;101408.13;4938321;28;20027;-74
2023/07/17 05:29:33;;;;;;;7.72;3.55;;;;;;;16.94;72.74;101407.25;4955018;28;20034;-75
2023/07/17 05:32:00;;;;;;;8.70;3.28;;;;;;;16.96;72.94;101408.53;4956196;28;20035;-72
2023/07/17 05:34:26;;;;;;;6.47;3.15;;;;;;;16.99;73.12;101402.50;4952606;28;20049;-75
2023/07/17 05:36:52;;;;;;;6.72;3.17;;;;;;;17.01;72.62;101411.16;4972443;28;20043;-75
2023/07/17 05:39:18;;;;;;;;;;;;;;;17.06;73.37;101408.34;4944150;28;20037;-74
2023/07/17 05:41:44;;;;;;;8.63;3.28;;;;;;;17.07;73.01;101404.56;4930201;28;19918;-75
2023/07/17 05:44:11;;;;;;;7.85;3.22;;;;;;;17.09;74.45;101418.59;4937479;28;20133;-74
2023/07/17 05:46:36;;;;;;;;;;;;;;;17.11;73.72;101421.00;4923868;28;20559;-73
2023/07/17 05:49:02;;;;;;;6.43;2.88;;;;;;;17.13;73.52;101413.38;4937902;28;19918;-75
2023/07/17 05:51:27;;;;;;;;;;;;;;;17.15;73.00;101419.31;4935024;28;20038;-72
2023/07/17 05:53:53;;;;;;;6.03;2.63;;;;;;;17.27;72.85;101418.81;4952082;28;20020;-74
2023/07/17 05:56:19;;;;;;;6.15;3.40;;;;;;;17.40;72.00;101413.44;4945486;28;20042;-74
2023/07/17 05:58:45;;;;;;;;;;;;;;;17.50;71.84;101417.06;4938692;28;20895;-73
2023/07/17 06:01:11;;;;;;;7.25;3.10;;;;;;;17.57;71.72;101412.84;4942352;28;20355;-75
2023/07/17 06:03:37;;;;;;;6.82;3.28;;;;;;;17.66;71.55;101408.34;4936000;28;20077;-76
2023/07/17 06:06:03;;;;;;;6.47;3.00;;;;;;;17.71;70.68;101421.81;4932872;28;20042;-74
2023/07/17 06:08:29;;;;;;;6.15;3.28;;;;;;;17.77;71.39;101414.41;4950279;28;20039;-76
2023/07/17 06:10:56;;;;;;;7.43;2.83;;;;;;;17.79;71.25;101424.94;4938151;28;20040;-72
2023/07/17 06:13:22;;;;;;;5.07;3.05;;;;;;;17.82;71.05;101430.56;4950622;28;20043;-75
2023/07/17 06:15:47;;;;;;;;;;;;;;;17.87;71.27;101429.63;4953544;28;20039;-75
2023/07/17 06:18:13;;;;;;;6.00;2.60;;;;;;;17.88;72.06;101420.41;4932181;28;19974;-77
2023/07/17 06:20:39;;;;;;;4.63;2.70;;;;;;;17.93;70.23;101423.00;4936627;28;20057;-75
2023/07/17 06:23:05;;;;;;;;;;;;;;;17.97;69.91;101432.16;4932215;28;20035;-74
2023/07/17 06:25:34;;;;;;;7.60;3.58;;;;;;;18.03;70.83;101420.09;4946343;28;19918;-73
2023/07/17 06:27:59;;;;;;;7.30;3.55;;;;;;;18.09;71.33;101416.19;4924101;28;20039;-74
2023/07/17 06:30:26;;;;;;;7.15;3.22;;;;;;;18.24;68.92;101415.06;4957144;28;20507;-76
2023/07/17 06:32:51;;;;;;;7.53;3.58;;;;;;;18.37;69.62;101416.13;4937662;28;20117;-74
2023/07/17 06:35:18;;;;;;;6.07;2.83;;;;;;;18.55;69.87;101426.78;4939653;28;20526;-76
2023/07/17 06:37:44;;;;;;;7.47;3.03;;;;;;;18.65;68.38;101419.56;4952677;28;20073;-76
2023/07/17 06:40:10;;;;;;;4.80;2.90;;;;;;;18.67;69.36;101418.16;4969604;28;20125;-73
2023/07/17 06:42:37;;;;;;;6.07;2.80;;;;;;;18.70;68.90;101425.69;4951117;28;20077;-74
2023/07/17 06:45:03;;;;;;;6.28;2.67;;;;;;;18.73;67.71;101408.78;4937895;28;20061;-75
2023/07/17 06:47:30;;;;;;;6.78;3.15;;;;;;;18.89;67.67;101419.25;4954993;28;20126;-75
2023/07/17 06:49:57;;;;;;;6.15;2.60;;;;;;;19.07;66.28;101416.34;4955136;28;20034;-78
2023/07/17 06:52:24;;;;;;;7.82;3.03;;;;;;;19.21;66.33;101413.56;4927011;28;20038;-74
2023/07/17 06:54:51;;;;;;;5.45;2.60;;;;;;;19.23;67.03;101416.75;4955862;28;20108;-76
2023/07/17 06:57:17;;;;;;;5.10;2.70;;;;;;;19.26;68.49;101427.00;4973784;28;20054;-76
2023/07/17 06:59:42;;;;;;;7.72;2.70;;;;;;;19.31;66.48;101429.59;4940530;28;20526;-74
2023/07/17 07:02:09;;;;;;;8.35;3.22;;;;;;;19.33;65.59;101427.38;4957247;28;20085;-75
2023/07/17 07:04:34;;;;;;;5.15;2.90;;;;;;;19.35;65.30;101436.00;4943360;28;20610;-75
2023/07/17 07:07:01;;;;;;;5.07;2.80;;;;;;;19.27;66.06;101442.19;4960660;28;20112;-74
2023/07/17 07:09:28;;;;;;;7.60;3.40;;;;;;;19.27;68.33;101435.97;4940204;28;20047;-75
2023/07/17 07:11:54;;;;;;;6.40;2.88;;;;;;;19.35;67.58;101430.56;4940365;28;20026;-75
2023/07/17 07:14:20;;;;;;;6.97;2.75;;;;;;;19.50;66.64;101433.97;4956682;28;20061;-75
2023/07/17 07:16:46;;;;;;;5.45;2.63;;;;;;;19.59;65.87;101432.94;4957320;28;20806;-75
2023/07/17 07:19:12;;;;;;;8.73;3.10;;;;;;;19.67;65.67;101427.88;4928790;28;20101;-76
2023/07/17 07:21:37;;;;;;;6.05;3.30;;;;;;;19.78;64.43;101435.44;4958655;28;20030;-78
2023/07/17 07:24:03;;;;;;;8.98;2.92;;;;;;;19.95;65.20;101433.88;4940067;28;20037;-76
2023/07/17 07:26:32;;;;;;;7.15;3.15;;;;;;;20.06;64.37;101435.19;4951954;28;20055;-78
2023/07/17 07:28:58;;;;;;;5.97;2.92;;;;;;;20.12;64.30;101425.75;4938533;28;20140;-77
2023/07/17 07:31:24;;;;;;;7.03;2.97;;;;;;;20.18;63.72;101438.06;4936584;28;20031;-77
2023/07/17 07:33:49;;;;;;;5.65;2.60;;;;;;;20.24;63.41;101428.63;4942627;28;20042;-77
2023/07/17 07:36:15;;;;;;;8.23;3.00;;;;;;;20.32;63.49;101437.94;4938838;28;20038;-74
2023/07/17 07:38:41;;;;;;;7.72;3.60;;;;;;;20.25;64.36;101435.69;4943664;28;20042;-76
2023/07/17 07:41:07;;;;;;;5.40;2.55;;;;;;;20.27;66.72;101441.63;4943930;28;20421;-77
2023/07/17 07:43:32;;;;;;;7.15;3.20;;;;;;;20.32;63.80;101438.75;4956218;28;20038;-75
2023/07/17 07:45:58;;;;;;;6.15;2.60;;;;;;;20.47;62.80;101442.16;4922482;28;20062;-75
2023/07/17 07:48:25;;;;;;;5.55;2.80;;;;;;;20.56;61.71;101434.78;4937107;28;20056;-75
2023/07/17 07:50:50;;;;;;;7.97;3.20;;;;;;;20.62;62.16;101433.50;4934461;28;20030;-75
2023/07/17 07:53:16;;;;;;;6.53;2.90;;;;;;;20.71;63.34;101434.28;4934972;28;20069;-77
2023/07/17 07:55:42;;;;;;;6.85;3.13;;;;;;;20.87;61.03;101435.41;4945586;28;20044;-76
2023/07/17 07:58:07;;;;;;;7.15;2.40;;;;;;;20.92;60.28;101437.16;4941756;28;20062;-77
2023/07/17 08:00:33;;;;;;;5.28;2.75;;;;;;;21.09;61.78;101444.50;4945605;28;20118;-78
2023/07/17 08:02:59;;;;;;;5.18;2.50;;;;;;;21.21;62.14;101447.38;4943306;28;20034;-78
2023/07/17 08:05:25;;;;;;;6.97;3.03;;;;;;;21.33;58.96;101452.97;4953008;28;20220;-78
2023/07/17 08:07:53;;;;;;;5.35;2.70;;;;;;;21.32;58.72;101448.63;4948725;28;20093;-74
2023/07/17 08:10:19;;;;;;;5.72;2.70;;;;;;;21.42;60.43;101447.50;4930854;28;20566;-76
2023/07/17 08:12:45;;;;;;;6.78;2.83;;;;;;;21.49;57.73;101442.34;4940703;28;20441;-79
2023/07/17 08:15:11;;;;;;;5.32;2.50;;;;;;;21.47;58.15;101444.56;4941745;28;20058;-75
2023/07/17 08:17:36;;;;;;;6.70;3.13;;;;;;;21.48;58.52;101457.91;4937991;28;20069;-77
2023/07/17 08:20:06;;;;;;;4.93;2.63;;;;;;;21.36;56.78;101443.34;4936792;28;20432;-75
2023/07/17 08:22:32;;;;;;;7.07;2.28;;;;;;;21.42;58.38;101447.50;4939087;28;20135;-78
2023/07/17 08:24:58;;;;;;;7.72;2.65;;;;;;;21.34;58.80;101454.59;4959298;28;20043;-77
2023/07/17 08:27:23;;;;;;;7.65;2.45;;;;;;;21.35;57.46;101464.34;4940522;28;20101;-74
2023/07/17 08:29:49;;;;;;;6.28;2.42;;;;;;;21.24;58.22;101463.06;4936976;28;20357;-75
2023/07/17 08:32:15;;;;;;;4.30;2.00;;;;;;;21.07;58.55;101457.66;4938074;28;20050;-79
2023/07/17 08:34:40;;;;;;;7.55;2.72;;;;;;;20.99;58.88;101473.66;4933418;28;20053;-75
2023/07/17 08:37:06;;;;;;;6.53;2.70;;;;;;;20.74;61.84;101466.34;4939608;28;20038;-75
2023/07/17 08:39:31;;;;;;;4.55;2.17;;;;;;;20.82;58.36;101468.25;4920068;28;20067;-78
2023/07/17 08:41:58;;;;;;;7.28;2.08;;;;;;;20.71;57.96;101456.06;4921505;28;20114;-78
2023/07/17 08:44:26;;;;;;;7.82;2.53;;;;;;;20.66;59.71;101457.03;4922121;28;20460;-78
2023/07/17 08:46:51;;;;;;;5.60;2.17;;;;;;;20.70;60.45;101463.44;4920741;28;20062;-79
2023/07/17 08:49:19;;;;;;;4.63;2.30;;;;;;;20.89;58.46;101468.56;4954479;28;20407;-77
2023/07/17 08:51:48;;;;;;;7.10;2.50;;;;;;;21.11;57.07;101464.03;4972756;28;20042;-75
2023/07/17 08:54:17;;;;;;;5.43;2.40;;;;;;;21.34;55.84;101460.03;4940302;28;20046;-77
2023/07/17 08:56:44;;;;;;;5.60;2.70;;;;;;;21.62;57.41;101454.16;4953394;28;20488;-74
2023/07/17 08:59:11;;;;;;;6.07;3.00;;;;;;;21.76;55.71;101441.13;4964896;23;20520;-79
2023/07/17 09:01:37;;;;;;;5.20;2.88;;;;;;;21.75;54.62;101448.50;4938199;28;20030;-76
2023/07/17 09:04:04;;;;;;;4.47;2.47;;;;;;;21.58;51.63;101461.38;4996371;28;20403;-81
2023/07/17 09:06:30;;;;;;;4.68;2.33;;;;;;;21.33;52.53;101458.41;4974213;28;20034;-76
2023/07/17 09:08:55;;;;;;;4.60;2.13;;;;;;;21.46;54.99;101453.88;4977312;28;20108;-75
2023/07/17 09:11:21;;;;;;;5.35;2.30;;;;;;;21.60;55.40;101459.13;4960765;28;20565;-76
2023/07/17 09:13:49;;;;;;;4.40;2.53;;;;;;;21.71;53.10;101449.47;4977341;28;20523;-76
2023/07/17 09:16:15;;;;;;;5.13;2.08;;;;;;;21.86;52.49;101457.09;4974696;28;20115;-78
2023/07/17 09:18:41;;;;;;;7.18;2.75;;;;;;;22.02;55.48;101455.41;4970020;28;20034;-76
2023/07/17 09:21:06;;;;;;;3.75;2.22;;;;;;;22.14;49.56;101451.19;4974418;28;20042;-77
2023/07/17 09:23:40;;;;;;;4.93;2.53;;;;;;;22.22;51.57;101461.28;4970398;28;20504;-77
2023/07/17 09:26:06;;;;;;;5.55;2.15;;;;;;;22.40;49.32;101449.09;4958495;28;20048;-76
2023/07/17 09:28:37;;;;;;;4.20;2.28;;;;;;;22.59;52.44;101456.81;4975502;28;20035;-75
2023/07/17 09:31:02;;;;;;;4.72;1.88;;;;;;;22.78;48.66;101448.16;4987208;28;20030;-77
2023/07/17 09:33:28;;;;;;;5.07;1.98;;;;;;;22.94;48.83;101451.88;4984845;28;20036;-76
2023/07/17 09:35:55;;;;;;;4.03;1.90;;;;;;;23.13;46.89;101454.91;4975113;28;20034;-77
2023/07/17 09:38:25;;;;;;;4.63;2.10;;;;;;;23.26;48.39;101452.19;4979969;28;20037;-75
2023/07/17 09:40:51;;;;;;;3.17;1.70;;;;;;;23.22;47.09;101462.19;4956667;28;20037;-76
2023/07/17 09:43:37;;;;;;;4.07;2.10;;;;;;;23.25;45.86;101456.06;4974437;28;20045;-77
2023/07/17 09:46:03;;;;;;;3.72;2.13;;;;;;;23.18;45.04;101462.09;4971503;28;21606;-77
2023/07/17 09:48:30;;;;;;;4.40;2.15;;;;;;;22.93;47.05;101471.34;4975731;28;20100;-76
2023/07/17 09:50:57;;;;;;;4.20;1.80;;;;;;;23.01;44.41;101473.19;4959791;28;20701;-77
2023/07/17 09:53:24;;;;;;;6.07;2.53;;;;;;;23.12;46.78;101475.16;4956231;28;20037;-78
2023/07/17 09:55:52;;;;;;;3.30;2.20;;;;;;;23.37;47.65;101483.41;4970025;28;20030;-77
2023/07/17 09:58:21;;;;;;;3.90;2.08;;;;;;;23.57;47.03;101470.78;4988211;28;20026;-78
2023/07/17 10:00:48;;;;;;;3.63;2.35;;;;;;;23.67;44.88;101476.66;4984804;28;20049;-77
2023/07/17 10:03:18;;;;;;;4.97;2.25;;;;;;;23.78;44.54;101478.97;4975901;28;20113;-79
2023/07/17 10:05:44;;;;;;;4.85;2.58;;;;;;;23.73;44.20;101471.78;4961418;28;20036;-80
2023/07/17 10:08:13;;;;;;;3.65;2.00;;;;;;;23.69;44.51;101477.13;4980760;28;20030;-76
2023/07/17 10:10:39;;;;;;;10.38;2.42;;;;;;;23.70;43.78;101473.25;4974009;28;20034;-75
2023/07/17 10:13:06;;;;;;;4.78;2.00;;;;;;;23.73;45.81;101482.72;4991109;28;20031;-76
2023/07/17 10:15:33;;;;;;;4.45;2.33;;;;;;;23.72;45.11;101485.78;4971380;28;20030;-77
2023/07/17 10:17:59;;;;;;;3.10;1.88;;;;;;;23.78;45.30;101495.38;4943164;28;20038;-77
2023/07/17 10:20:29;;;;;;;6.22;2.50;;;;;;;23.78;44.55;101485.22;4987731;28;20030;-76
2023/07/17 10:22:54;;;;;;;3.25;1.92;;;;;;;23.78;43.96;101482.50;4960935;28;20038;-77
2023/07/17 10:25:20;;;;;;;4.30;2.20;;;;;;;23.93;44.83;101486.47;4965416;28;20407;-80
2023/07/17 10:27:58;;;;;;;5.63;2.67;;;;;;;23.78;43.00;101492.63;4989346;28;20042;-77
2023/07/17 10:30:24;;;;;;;4.05;2.05;;;;;;;23.80;44.59;101493.09;4987973;28;20038;-80
2023/07/17 10:33:10;;;;;;;4.38;2.65;;;;;;;23.66;43.27;101482.47;4976088;28;20088;-80
2023/07/17 10:36:03;;;;;;;4.53;2.10;;;;;;;23.42;47.26;101505.06;4964108;28;20092;-76
2023/07/17 10:38:33;;;;;;;5.97;2.10;;;;;;;23.30;46.87;101502.28;4964851;28;20499;-79
2023/07/17 10:41:11;;;;;;;4.43;2.33;;;;;;;23.16;48.86;101497.91;4975272;28;20113;-74
2023/07/17 10:43:48;;;;;;;3.47;2.30;;;;;;;23.43;50.68;101493.78;4989573;28;20128;-80
2023/07/17 10:46:14;;;;;;;4.57;2.67;;;;;;;23.53;44.53;101500.78;4958083;28;20049;-75
2023/07/17 10:48:40;;;;;;;4.45;2.58;;;;;;;23.47;46.25;101502.13;4991663;28;20034;-75
2023/07/17 10:51:05;;;;;;;6.20;2.70;;;;;;;23.36;45.83;101495.47;4988193;28;20117;-75
2023/07/17 10:53:32;;;;;;;4.50;2.58;;;;;;;23.07;44.96;101499.94;4977341;28;20404;-76
2023/07/17 10:55:58;;;;;;;6.07;2.22;;;;;;;22.86;49.94;101504.66;4987438;28;20519;-78
2023/07/17 10:58:25;;;;;;;4.90;1.73;;;;;;;22.88;51.35;101494.19;4920667;28;20045;-80
2023/07/17 11:00:51;;;;;;;5.97;3.25;;;;;;;22.86;47.58;101510.91;4947056;28;20053;-81
2023/07/17 11:03:22;;;;;;;5.57;3.15;;;;;;;22.81;46.05;101510.28;4977553;28;20499;-77
2023/07/17 11:05:49;;;;;;;5.82;2.60;;;;;;;22.80;51.23;101516.88;4988416;28;20077;-80
2023/07/17 11:08:15;;;;;;;4.07;2.33;;;;;;;23.06;49.29;101509.28;4986062;28;20027;-77
2023/07/17 11:10:45;;;;;;;5.63;2.75;;;;;;;22.98;46.79;101514.84;4954864;28;20038;-77
2023/07/17 11:13:10;;;;;;;6.57;3.35;;;;;;;22.83;47.21;101513.50;4987211;28;20519;-75
2023/07/17 11:15:37;;;;;;;5.65;2.72;;;;;;;22.76;46.19;101505.00;4985941;28;20042;-76
2023/07/17 11:18:05;;;;;;;6.22;2.67;;;;;;;22.75;46.65;101519.78;4969566;28;20042;-74
2023/07/17 11:20:33;;;;;;;6.70;2.80;;;;;;;22.76;50.59;101516.75;4967510;28;20069;-77
2023/07/17 11:22:58;;;;;;;5.53;2.40;;;;;;;23.02;48.00;101510.28;4957640;28;20038;-76
2023/07/17 11:25:26;;;;;;;7.03;2.60;;;;;;;23.11;51.37;101517.28;4968550;28;20030;-75
2023/07/17 11:27:53;;;;;;;5.45;3.22;;;;;;;23.04;48.87;101511.56;4957520;28;20380;-78
2023/07/17 11:30:26;;;;;;;6.40;2.70;;;;;;;23.29;48.09;101506.97;4972105;28;20038;-74
2023/07/17 11:32:58;;;;;;;5.90;3.08;;;;;;;23.25;46.94;101521.66;4973910;28;20034;-75